Time;durP1;ratioP1;P1;durP2;ratioP2;P2;SDS_P1;SDS_P2;PMS_P1;PMS_P2;Temp;Humidity;BMP_temperature;BMP_pressure;BME280_temperature;BME280_humidity;BME280_pressure;Samples;Min_cycle;Max_cycle;Signal;HPM_P1;HPM_P2
2021/04/22 00:01:14;;;;;;;;;;;;;;;21.93;34.58;102299.81;2195848;39;113976;-57
2021/04/22 00:02:45;;;;;;;;;;;;;;;21.91;34.80;102302.88;2195105;39;113878;-57
2021/04/22 00:04:17;;;;;;;;;;;;;;;21.91;34.63;102310.47;2193062;39;114984;-57
2021/04/22 00:05:48;;;;;;;;;;;;;;;21.92;34.77;102312.16;2192729;39;114915;-59
2021/04/22 00:07:19;;;;;;;;;;;;;;;21.89;34.42;102307.97;2202752;39;115240;-59
2021/04/22 00:08:51;;;;;;;;;;;;;;;21.88;34.49;102302.59;2196796;39;114891;-58
2021/04/22 00:10:24;;;;;;;;;;;;;;;21.85;34.82;102311.63;2195712;39;115105;-58
2021/04/22 00:11:56;;;;;;;;;;;;;;;21.86;34.51;102313.28;2196323;39;114904;-58
2021/04/22 00:13:29;;;;;;;;;;;;;;;21.85;34.47;102309.63;2195780;39;115221;-59
2021/04/22 00:15:06;;;;;;;;;;;;;;;21.85;34.39;102309.63;2192500;39;114559;-56
2021/04/22 00:16:37;;;;;;;;;;;;;;;21.82;34.60;102312.16;2185499;39;114946;-59
2021/04/22 00:18:09;;;;;;;;;;;;;;;21.83;34.48;102308.22;2187912;39;114766;-57
2021/04/22 00:21:15;;;;;;;;;;;;;;;21.80;34.50;102308.81;2196053;39;114866;-59
2021/04/22 00:22:46;;;;;;;;;;;;;;;21.79;34.69;102310.78;2196937;39;115009;-58
2021/04/22 00:24:17;;;;;;;;;;;;;;;21.78;34.50;102308.25;2202915;39;113893;-60
2021/04/22 00:25:49;;;;;;;;;;;;;;;21.77;34.62;102309.34;2190457;39;115772;-60
2021/04/22 00:27:20;;;;;;;;;;;;;;;21.77;34.44;102312.19;2193985;39;116237;-58
2021/04/22 00:28:51;;;;;;;;;;;;;;;21.76;34.58;102307.69;2195733;39;114665;-56
2021/04/22 00:30:24;;;;;;;;;;;;;;;21.73;34.65;102309.09;2196260;39;115562;-57
2021/04/22 00:31:55;;;;;;;;;;;;;;;21.73;34.49;102318.38;2199829;39;115694;-58
2021/04/22 00:33:29;;;;;;;;;;;;;;;21.71;34.59;102312.19;2200373;39;115575;-58
2021/04/22 00:35:01;;;;;;;;;;;;;;;21.74;34.88;102317.25;2198456;39;115554;-58
2021/04/22 00:36:33;;;;;;;;;;;;;;;21.73;34.66;102318.38;2199112;39;116174;-60
2021/04/22 00:38:06;;;;;;;;;;;;;;;21.73;34.72;102317.53;2196530;39;115654;-59
2021/04/22 00:39:37;;;;;;;;;;;;;;;21.71;34.54;102320.63;2189073;39;115599;-56
2021/04/22 00:41:10;;;;;;;;;;;;;;;21.72;34.83;102327.94;2190709;39;115689;-59
2021/04/22 00:42:42;;;;;;;;;;;;;;;21.73;34.60;102328.78;2198692;39;115703;-58
2021/04/22 00:44:14;;;;;;;;;;;;;;;21.71;34.50;102329.06;2196811;39;114555;-59
2021/04/22 00:45:47;;;;;;;;;;;;;;;21.68;34.94;102321.19;2200135;39;115295;-57
2021/04/22 00:47:19;;;;;;;;;;;;;;;21.69;35.02;102324.84;2194276;39;113779;-60
2021/04/22 00:48:50;;;;;;;;;;;;;;;21.68;34.67;102326.81;2197054;39;113998;-57
2021/04/22 00:50:25;;;;;;;;;;;;;;;21.68;34.88;102325.97;2196442;39;114389;-58
2021/04/22 00:51:59;;;;;;;;;;;;;;;21.67;34.96;102327.09;2192439;39;113847;-56
2021/04/22 00:53:30;;;;;;;;;;;;;;;21.66;34.82;102325.44;2195523;39;113651;-59
2021/04/22 00:55:04;;;;;;;;;;;;;;;21.66;34.99;102326.28;2188744;39;113776;-58
2021/04/22 00:56:35;;;;;;;;;;;;;;;21.64;34.51;102325.69;2194229;39;113689;-55
2021/04/22 00:58:07;;;;;;;;;;;;;;;21.64;34.86;102319.22;2190523;39;113911;-58
2021/04/22 00:59:39;;;;;;;;;;;;;;;21.61;34.65;102320.66;2188244;39;114098;-55
2021/04/22 01:01:11;;;;;;;;;;;;;;;21.61;35.15;102323.47;2191687;39;113893;-57
2021/04/22 01:02:43;;;;;;;;;;;;;;;21.61;34.91;102320.66;2195280;39;114299;-60
2021/04/22 01:04:14;;;;;;;;;;;;;;;21.61;34.73;102323.47;2193421;39;114524;-58
2021/04/22 01:05:47;;;;;;;;;;;;;;;21.59;35.04;102314.44;2196535;39;114336;-56
2021/04/22 01:07:19;;;;;;;;;;;;;;;21.59;35.18;102313.59;2200413;39;113687;-57
2021/04/22 01:08:50;;;;;;;;;;;;;;;21.59;35.18;102327.66;2194215;39;114822;-56
2021/04/22 01:10:22;;;;;;;;;;;;;;;21.58;34.89;102332.44;2194069;39;114923;-59
2021/04/22 01:11:55;;;;;;;;;;;;;;;21.58;34.85;102328.78;2186559;39;114917;-56
2021/04/22 01:13:26;;;;;;;;;;;;;;;21.55;35.04;102330.22;2189584;39;114799;-57
2021/04/22 01:14:58;;;;;;;;;;;;;;;21.55;35.24;102330.22;2191317;39;114973;-57
2021/04/22 01:16:29;;;;;;;;;;;;;;;21.55;35.08;102340.63;2195468;39;114882;-59
2021/04/22 01:18:01;;;;;;;;;;;;;;;21.54;35.33;102334.13;2191400;39;114980;-59
2021/04/22 01:19:34;;;;;;;;;;;;;;;21.53;35.19;102337.25;2194507;39;114960;-59
2021/04/22 01:21:08;;;;;;;;;;;;;;;21.51;34.84;102331.06;2194235;39;114797;-55
2021/04/22 01:22:39;;;;;;;;;;;;;;;21.51;35.13;102329.09;2194343;39;115754;-59
2021/04/22 01:24:11;;;;;;;;;;;;;;;21.50;34.93;102324.59;2196760;39;115336;-55
2021/04/22 01:25:46;;;;;;;;;;;;;;;21.51;34.91;102329.09;2197552;39;113983;-59
2021/04/22 01:27:18;;;;;;;;;;;;;;;21.50;35.17;102327.41;2199511;39;115459;-59
2021/04/22 01:28:49;;;;;;;;;;;;;;;21.49;35.25;102328.50;2203049;39;115212;-57
2021/04/22 01:30:24;;;;;;;;;;;;;;;21.49;34.99;102324.84;2198566;39;115588;-58
2021/04/22 01:31:55;;;;;;;;;;;;;;;21.47;35.09;102330.78;2196931;39;115567;-59
2021/04/22 01:33:27;;;;;;;;;;;;;;;21.48;35.26;102328.81;2198048;39;115638;-56
2021/04/22 01:34:59;;;;;;;;;;;;;;;21.47;35.29;102330.78;2198312;39;115552;-57
2021/04/22 01:36:32;;;;;;;;;;;;;;;21.47;35.46;102330.78;2198167;39;115549;-58
2021/04/22 01:38:05;;;;;;;;;;;;;;;21.48;35.62;102326.84;2194865;39;114980;-60
2021/04/22 01:39:37;;;;;;;;;;;;;;;21.48;35.16;102329.66;2198407;39;115542;-61
2021/04/22 01:41:09;;;;;;;;;;;;;;;21.45;35.69;102324.56;2191939;39;115441;-54
2021/04/22 01:42:40;;;;;;;;;;;;;;;21.44;35.76;102327.69;2195856;39;116304;-57
2021/04/22 01:44:11;;;;;;;;;;;;;;;21.44;35.37;102334.13;2187856;39;115514;-59
2021/04/22 01:45:43;;;;;;;;;;;;;;;21.43;35.26;102326.84;2192845;39;116094;-56
2021/04/22 01:47:15;;;;;;;;;;;;;;;21.42;35.56;102333.59;2195894;39;115591;-57
2021/04/22 01:48:46;;;;;;;;;;;;;;;21.41;35.39;102331.91;2192914;39;116157;-58
2021/04/22 01:50:20;;;;;;;;;;;;;;;21.43;35.45;102331.63;2198540;39;116304;-58
2021/04/22 01:51:52;;;;;;;;;;;;;;;21.41;35.57;102328.22;2196290;39;115918;-55
2021/04/22 01:53:23;;;;;;;;;;;;;;;21.40;35.66;102330.19;2191454;39;114298;-57
2021/04/22 01:54:56;;;;;;;;;;;;;;;21.41;35.63;102331.03;2190915;39;113900;-55
2021/04/22 01:56:27;;;;;;;;;;;;;;;21.40;35.27;102337.78;2191712;39;114205;-63
2021/04/22 01:57:58;;;;;;;;;;;;;;;21.41;35.67;102329.09;2198296;39;113713;-55
2021/04/22 01:59:30;;;;;;;;;;;;;;;21.38;35.70;102338.09;2200995;39;113753;-57
2021/04/22 02:01:02;;;;;;;;;;;;;;;21.38;35.35;102334.44;2193290;39;114396;-57
2021/04/22 02:02:34;;;;;;;;;;;;;;;21.35;35.58;102341.44;2194761;39;113961;-60
2021/04/22 02:04:05;;;;;;;;;;;;;;;21.36;35.74;102342.28;2193461;39;113867;-61
2021/04/22 02:05:39;;;;;;;;;;;;;;;21.33;35.83;102340.88;2192761;39;113961;-60
2021/04/22 02:07:12;;;;;;;;;;;;;;;21.34;35.50;102347.38;2197951;39;113959;-54
2021/04/22 02:08:43;;;;;;;;;;;;;;;21.33;35.38;102329.66;2195806;39;113864;-56
2021/04/22 02:10:15;;;;;;;;;;;;;;;21.30;35.60;102331.03;2197804;39;113914;-58
2021/04/22 02:11:46;;;;;;;;;;;;;;;21.30;35.57;102335.84;2201665;39;113777;-55
2021/04/22 02:13:19;;;;;;;;;;;;;;;21.32;35.95;102336.38;2200703;39;113900;-59
2021/04/22 02:14:51;;;;;;;;;;;;;;;21.32;35.68;102339.19;2185632;39;114863;-57
2021/04/22 02:16:22;;;;;;;;;;;;;;;21.33;35.70;102334.41;2195629;39;115422;-57
2021/04/22 02:17:54;;;;;;;;;;;;;;;21.30;35.51;102336.66;2204281;39;114804;-58
2021/04/22 02:19:25;;;;;;;;;;;;;;;21.31;35.62;102331.88;2200475;39;114898;-57
2021/04/22 02:20:56;;;;;;;;;;;;;;;21.31;35.73;102340.31;2195418;39;114832;-58
2021/04/22 02:24:02;;;;;;;;;;;;;;;21.27;35.92;102333.56;2202448;39;114988;-61
2021/04/22 02:25:34;;;;;;;;;;;;;;;21.27;35.68;102339.19;2193660;39;115474;-59
2021/04/22 02:27:06;;;;;;;;;;;;;;;21.27;35.71;102327.94;2198074;39;114951;-59
2021/04/22 02:28:38;;;;;;;;;;;;;;;21.28;35.84;102332.44;2200030;39;114841;-53
2021/04/22 02:30:12;;;;;;;;;;;;;;;21.26;35.48;102341.16;2198570;39;114913;-60
2021/04/22 02:31:45;;;;;;;;;;;;;;;21.27;35.91;102336.38;2198424;39;115024;-55
2021/04/22 02:33:18;;;;;;;;;;;;;;;21.24;35.48;102340.59;2196961;39;115495;-58
2021/04/22 02:34:49;;;;;;;;;;;;;;;21.23;35.53;102346.50;2197128;39;115283;-55
2021/04/22 02:36:20;;;;;;;;;;;;;;;21.23;35.58;102347.34;2196617;39;114573;-56
2021/04/22 02:37:52;;;;;;;;;;;;;;;21.21;35.25;102343.94;2196505;39;115561;-58
2021/04/22 02:39:24;;;;;;;;;;;;;;;21.22;35.77;102342.84;2205703;39;115841;-54
2021/04/22 02:40:56;;;;;;;;;;;;;;;21.23;35.77;102354.94;2200330;39;115598;-55
2021/04/22 02:42:27;;;;;;;;;;;;;;;21.22;35.78;102345.66;2195241;39;115746;-58
2021/04/22 02:43:58;;;;;;;;;;;;;;;21.20;35.96;102347.91;2195399;39;115430;-59
2021/04/22 02:45:31;;;;;;;;;;;;;;;21.20;35.47;102350.72;2195083;39;115597;-56
2021/04/22 02:47:03;;;;;;;;;;;;;;;21.18;35.44;102352.97;2192675;39;114820;-58
2021/04/22 02:48:35;;;;;;;;;;;;;;;21.19;35.64;102353.81;2196873;39;115617;-54
2021/04/22 02:50:08;;;;;;;;;;;;;;;21.17;35.88;102354.06;2197689;39;115452;-55
2021/04/22 02:51:39;;;;;;;;;;;;;;;21.18;35.51;102357.72;2199444;39;115560;-57
2021/04/22 02:53:11;;;;;;;;;;;;;;;21.16;35.73;102352.41;2193714;39;115540;-56
2021/04/22 02:54:42;;;;;;;;;;;;;;;21.17;35.60;102350.41;2194889;39;115558;-58
2021/04/22 02:56:14;;;;;;;;;;;;;;;21.16;35.78;102352.41;2200713;39;115703;-58
2021/04/22 02:57:45;;;;;;;;;;;;;;;21.15;35.92;102353.53;2198656;39;113726;-58
2021/04/22 02:59:16;;;;;;;;;;;;;;;21.15;35.35;102359.16;2203701;39;113923;-56
2021/04/22 03:00:47;;;;;;;;;;;;;;;21.16;35.62;102358.03;2199967;39;113636;-59
2021/04/22 03:02:19;;;;;;;;;;;;;;;21.14;35.77;102353.78;2191645;39;113922;-56
2021/04/22 03:03:50;;;;;;;;;;;;;;;21.13;35.67;102352.09;2195702;39;114065;-56
2021/04/22 03:05:22;;;;;;;;;;;;;;;21.12;35.82;102356.03;2201924;39;113978;-56
2021/04/22 03:06:54;;;;;;;;;;;;;;;21.13;35.76;102347.31;2194936;39;114064;-61
2021/04/22 03:08:25;;;;;;;;;;;;;;;21.12;35.66;102350.41;2198634;39;113615;-58
2021/04/22 03:09:58;;;;;;;;;;;;;;;21.12;35.72;102353.22;2192485;39;113909;-59
2021/04/22 03:11:29;;;;;;;;;;;;;;;21.13;35.63;102363.34;2185765;39;113836;-59
2021/04/22 03:13:01;;;;;;;;;;;;;;;21.12;35.61;102361.66;2189751;39;114000;-58
2021/04/22 03:14:32;;;;;;;;;;;;;;;21.10;35.55;102358.25;2196703;39;114115;-54
2021/04/22 03:16:05;;;;;;;;;;;;;;;21.09;35.64;102354.59;2198130;39;113748;-59
2021/04/22 03:17:37;;;;;;;;;;;;;;;21.07;35.67;102356.00;2201008;39;113903;-55
2021/04/22 03:19:08;;;;;;;;;;;;;;;21.08;35.79;102363.28;2195956;39;114044;-56
2021/04/22 03:20:40;;;;;;;;;;;;;;;21.07;35.32;102358.81;2192681;39;115562;-60
2021/04/22 03:22:12;;;;;;;;;;;;;;;21.06;35.51;102360.78;2203768;39;114822;-56
2021/04/22 03:23:43;;;;;;;;;;;;;;;21.04;35.85;102360.19;2193725;39;115679;-57
2021/04/22 03:25:16;;;;;;;;;;;;;;;21.06;35.93;102371.19;2195811;39;117215;-56
2021/04/22 03:26:47;;;;;;;;;;;;;;;21.06;35.78;102359.94;2190884;39;115136;-58
2021/04/22 03:28:19;;;;;;;;;;;;;;;21.04;35.79;102356.53;2195354;39;114907;-60
2021/04/22 03:29:51;;;;;;;;;;;;;;;21.04;35.96;102362.16;2197921;39;115098;-56
2021/04/22 03:31:24;;;;;;;;;;;;;;;21.05;35.55;102350.66;2198165;39;114962;-58
2021/04/22 03:32:55;;;;;;;;;;;;;;;21.03;35.67;102352.88;2203592;39;114604;-56
2021/04/22 03:34:28;;;;;;;;;;;;;;;21.02;36.00;102358.81;2191213;39;115114;-57
2021/04/22 03:35:59;;;;;;;;;;;;;;;21.04;35.86;102360.19;2196077;39;115302;-56
2021/04/22 03:37:31;;;;;;;;;;;;;;;21.03;35.67;102364.13;2194695;39;114874;-56
2021/04/22 03:39:03;;;;;;;;;;;;;;;20.99;35.76;102360.19;2198222;39;113952;-58
2021/04/22 03:40:35;;;;;;;;;;;;;;;21.01;35.66;102354.31;2194520;39;115396;-59
2021/04/22 03:42:07;;;;;;;;;;;;;;;21.01;36.11;102354.31;2194687;39;115714;-60
2021/04/22 03:43:39;;;;;;;;;;;;;;;21.00;35.96;102355.41;2196822;39;115548;-58
2021/04/22 03:45:12;;;;;;;;;;;;;;;20.98;36.00;102352.91;2185952;39;115672;-56
2021/04/22 03:48:18;;;;;;;;;;;;;;;20.97;36.26;102353.16;2196666;39;115585;-57
2021/04/22 03:49:50;;;;;;;;;;;;;;;20.97;35.91;102344.75;2196012;39;115740;-57
2021/04/22 03:51:21;;;;;;;;;;;;;;;20.97;35.93;102347.53;2197627;39;115955;-58
2021/04/22 03:52:54;;;;;;;;;;;;;;;20.97;36.03;102350.34;2195194;39;115582;-59
2021/04/22 03:54:26;;;;;;;;;;;;;;;20.94;36.30;102350.91;2196573;39;115554;-59
2021/04/22 03:55:59;;;;;;;;;;;;;;;20.95;36.12;102353.44;2200769;39;115461;-56
2021/04/22 03:57:30;;;;;;;;;;;;;;;20.94;36.17;102348.13;2193555;39;115564;-57
2021/04/22 03:59:02;;;;;;;;;;;;;;;20.92;36.17;102354.00;2197840;39;115058;-55
2021/04/22 04:00:33;;;;;;;;;;;;;;;20.92;36.13;102348.38;2195521;39;116287;-56
2021/04/22 04:02:04;;;;;;;;;;;;;;;20.92;36.21;102353.16;2195219;39;115842;-57
2021/04/22 04:03:36;;;;;;;;;;;;;;;20.92;36.11;102353.16;2194251;39;114206;-55
2021/04/22 04:05:08;;;;;;;;;;;;;;;20.91;36.11;102351.47;2198289;39;113557;-59
2021/04/22 04:06:40;;;;;;;;;;;;;;;20.92;36.37;102353.16;2193608;39;113872;-59
2021/04/22 04:08:11;;;;;;;;;;;;;;;20.90;36.62;102349.75;2191719;39;114776;-56
2021/04/22 04:09:43;;;;;;;;;;;;;;;20.90;36.52;102355.38;2186042;39;113927;-57
2021/04/22 04:11:15;;;;;;;;;;;;;;;20.89;36.35;102354.56;2196578;39;113884;-56
2021/04/22 04:12:47;;;;;;;;;;;;;;;20.89;36.20;102362.16;2194406;39;114255;-58
2021/04/22 04:14:19;;;;;;;;;;;;;;;20.90;36.33;102363.81;2189488;39;113975;-56
2021/04/22 04:15:50;;;;;;;;;;;;;;;20.86;36.55;102357.91;2196037;39;113922;-55
2021/04/22 04:17:22;;;;;;;;;;;;;;;20.91;36.74;102346.69;2195859;39;114342;-59
2021/04/22 04:18:54;;;;;;;;;;;;;;;20.94;36.96;102351.75;2193405;39;114007;-59
2021/04/22 04:20:25;;;;;;;;;;;;;;;20.97;37.16;102358.78;2193496;39;113725;-57
2021/04/22 04:21:57;;;;;;;;;;;;;;;21.00;37.28;102366.66;2198556;39;113697;-56
2021/04/22 04:23:28;;;;;;;;;;;;;;;21.02;37.00;102361.63;2200983;39;113960;-60
2021/04/22 04:24:59;;;;;;;;;;;;;;;21.05;36.92;102358.25;2192742;39;114915;-60
2021/04/22 04:26:31;;;;;;;;;;;;;;;21.08;37.23;102360.47;2198370;39;114480;-59
2021/04/22 04:28:02;;;;;;;;;;;;;;;21.11;37.15;102362.75;2195926;39;114948;-58
2021/04/22 04:29:33;;;;;;;;;;;;;;;21.14;37.16;102370.66;2202199;39;115026;-56
2021/04/22 04:31:05;;;;;;;;;;;;;;;21.16;37.46;102360.84;2197942;39;114859;-58
2021/04/22 04:32:36;;;;;;;;;;;;;;;21.19;37.11;102363.09;2192886;39;114919;-55
2021/04/22 04:34:10;;;;;;;;;;;;;;;21.23;37.42;102367.03;2193117;39;113946;-56
2021/04/22 04:35:41;;;;;;;;;;;;;;;21.27;37.42;102368.16;2194220;39;115200;-57
2021/04/22 04:37:13;;;;;;;;;;;;;;;21.30;37.42;102361.97;2194182;39;114430;-55
2021/04/22 04:38:44;;;;;;;;;;;;;;;21.35;37.48;102360.31;2185809;39;115029;-59
2021/04/22 04:40:16;;;;;;;;;;;;;;;21.37;37.54;102358.88;2194037;39;114804;-56
2021/04/22 04:41:47;;;;;;;;;;;;;;;21.42;37.54;102367.31;2194324;39;115337;-59
2021/04/22 04:43:23;;;;;;;;;;;;;;;21.45;37.03;102363.94;2192865;39;113633;-58
2021/04/22 04:44:54;;;;;;;;;;;;;;;21.50;37.16;102366.75;2197530;39;114861;-60
2021/04/22 04:46:26;;;;;;;;;;;;;;;21.54;36.92;102364.22;2195668;39;115978;-56
2021/04/22 04:47:57;;;;;;;;;;;;;;;21.57;36.78;102374.94;2198209;39;115615;-58
2021/04/22 04:49:28;;;;;;;;;;;;;;;21.61;36.99;102373.25;2196753;39;115657;-56
2021/04/22 04:51:00;;;;;;;;;;;;;;;21.65;38.04;102369.59;2193483;39;114889;-57
2021/04/22 04:52:32;;;;;;;;;;;;;;;21.70;37.68;102371.56;2193222;39;115550;-57
2021/04/22 04:54:04;;;;;;;;;;;;;;;21.72;37.06;102372.94;2198441;39;114947;-55
2021/04/22 04:55:35;;;;;;;;;;;;;;;21.78;37.27;102367.31;2200020;39;115779;-57
2021/04/22 04:57:07;;;;;;;;;;;;;;;21.79;36.94;102375.50;2194361;39;115742;-56
2021/04/22 04:58:39;;;;;;;;;;;;;;;21.84;37.61;102374.66;2202097;39;116292;-57
2021/04/22 05:00:12;;;;;;;;;;;;;;;21.88;37.26;102376.63;2199434;39;115576;-56
2021/04/22 05:01:44;;;;;;;;;;;;;;;21.91;36.81;102373.22;2198736;39;115480;-60
2021/04/22 05:03:15;;;;;;;;;;;;;;;21.95;36.42;102377.19;2197908;39;115830;-61
2021/04/22 05:04:46;;;;;;;;;;;;;;;21.98;36.72;102372.97;2197651;39;115540;-59
2021/04/22 05:06:17;;;;;;;;;;;;;;;22.02;36.44;102382.53;2199088;39;116005;-57
2021/04/22 05:07:49;;;;;;;;;;;;;;;22.05;36.47;102388.44;2200352;39;115722;-60
2021/04/22 05:09:21;;;;;;;;;;;;;;;22.08;36.65;102387.00;2191387;39;114193;-59
2021/04/22 05:10:53;;;;;;;;;;;;;;;22.12;36.78;102386.16;2195939;39;114054;-58
2021/04/22 05:12:25;;;;;;;;;;;;;;;22.14;36.56;102395.19;2198624;39;114126;-57
2021/04/22 05:13:56;;;;;;;;;;;;;;;22.18;36.63;102392.63;2198414;39;113949;-57
2021/04/22 05:15:28;;;;;;;;;;;;;;;22.23;36.43;102391.78;2191989;39;113962;-64
2021/04/22 05:17:00;;;;;;;;;;;;;;;22.25;36.56;102384.75;2196351;39;113659;-55
2021/04/22 05:18:31;;;;;;;;;;;;;;;22.28;36.34;102389.78;2198651;39;113653;-60
2021/04/22 05:20:04;;;;;;;;;;;;;;;22.31;36.60;102394.00;2198653;39;113952;-55
2021/04/22 05:21:35;;;;;;;;;;;;;;;22.34;36.94;102397.13;2199338;39;113549;-59
2021/04/22 05:23:06;;;;;;;;;;;;;;;22.38;36.96;102397.38;2198384;39;113745;-60
2021/04/22 05:24:38;;;;;;;;;;;;;;;22.39;36.90;102394.28;2191843;39;113687;-58
2021/04/22 05:26:11;;;;;;;;;;;;;;;22.44;36.99;102396.25;2196080;39;114259;-58
2021/04/22 05:27:42;;;;;;;;;;;;;;;22.46;36.83;102400.44;2198893;39;113823;-57
2021/04/22 05:29:17;;;;;;;;;;;;;;;22.49;36.70;102399.88;2199325;39;114302;-56
2021/04/22 05:30:49;;;;;;;;;;;;;;;22.51;36.81;102403.25;2199117;39;114348;-56
2021/04/22 05:32:20;;;;;;;;;;;;;;;22.56;37.06;102406.06;2200480;39;114871;-60
2021/04/22 05:33:51;;;;;;;;;;;;;;;22.58;36.96;102406.59;2193803;39;114832;-58
2021/04/22 05:35:23;;;;;;;;;;;;;;;22.61;36.55;102396.75;2198924;39;114878;-58
2021/04/22 05:36:58;;;;;;;;;;;;;;;22.64;35.96;102415.88;2188021;39;115057;-57
2021/04/22 05:38:29;;;;;;;;;;;;;;;22.66;36.41;102401.50;2194010;39;114862;-59
2021/04/22 05:40:00;;;;;;;;;;;;;;;22.70;36.15;102405.47;2194997;39;115120;-58
2021/04/22 05:41:33;;;;;;;;;;;;;;;22.73;36.02;102407.72;2197360;39;114822;-55
2021/04/22 05:43:07;;;;;;;;;;;;;;;22.75;36.23;102413.91;2194524;39;114901;-57
2021/04/22 05:44:39;;;;;;;;;;;;;;;22.78;35.86;102410.50;2191484;39;115250;-55
2021/04/22 05:46:10;;;;;;;;;;;;;;;22.80;35.73;102413.91;2195183;39;114929;-58
2021/04/22 05:47:43;;;;;;;;;;;;;;;22.83;35.62;102413.31;2193577;39;115185;-57
2021/04/22 05:49:15;;;;;;;;;;;;;;;22.85;35.89;102414.69;2198239;39;115065;-60
2021/04/22 05:50:48;;;;;;;;;;;;;;;22.88;35.69;102416.94;2200916;39;114837;-58
2021/04/22 05:52:19;;;;;;;;;;;;;;;22.90;35.73;102420.31;2197598;39;115849;-56
2021/04/22 05:53:51;;;;;;;;;;;;;;;22.93;35.64;102413.28;2192367;39;115184;-58
2021/04/22 05:55:22;;;;;;;;;;;;;;;22.96;35.51;102418.31;2191618;39;115535;-57
2021/04/22 05:56:54;;;;;;;;;;;;;;;22.98;35.51;102421.72;2185469;39;115977;-56
2021/04/22 05:58:25;;;;;;;;;;;;;;;23.01;35.41;102426.75;2193941;39;115669;-59
2021/04/22 05:59:56;;;;;;;;;;;;;;;23.02;36.24;102428.44;2192337;39;115700;-57
2021/04/22 06:01:27;;;;;;;;;;;;;;;23.04;36.16;102426.16;2191725;39;116083;-57
2021/04/22 06:02:59;;;;;;;;;;;;;;;23.07;36.17;102427.56;2195680;39;116110;-59
2021/04/22 06:04:31;;;;;;;;;;;;;;;23.10;36.31;102421.34;2201481;39;116068;-60
2021/04/22 06:06:03;;;;;;;;;;;;;;;23.12;35.82;102421.91;2198091;39;115506;-56
2021/04/22 06:07:34;;;;;;;;;;;;;;;23.13;35.72;102429.22;2191387;39;115712;-57
2021/04/22 06:09:06;;;;;;;;;;;;;;;23.15;35.85;102426.97;2195879;39;115578;-59
2021/04/22 06:10:38;;;;;;;;;;;;;;;23.17;35.47;102428.34;2197893;39;115913;-59
2021/04/22 06:12:10;;;;;;;;;;;;;;;23.18;35.84;102435.69;2200105;39;115888;-56
2021/04/22 06:13:41;;;;;;;;;;;;;;;23.21;35.24;102437.94;2197788;39;114005;-58
2021/04/22 06:15:13;;;;;;;;;;;;;;;23.23;35.14;102438.47;2191054;39;114320;-58
2021/04/22 06:16:45;;;;;;;;;;;;;;;23.25;34.92;102441.00;2191319;39;114274;-59
2021/04/22 06:18:16;;;;;;;;;;;;;;;23.27;35.21;102439.56;2196221;39;113772;-57
2021/04/22 06:19:48;;;;;;;;;;;;;;;23.29;35.14;102439.28;2194573;39;113612;-58
2021/04/22 06:21:19;;;;;;;;;;;;;;;23.28;35.07;102434.78;2198549;39;114094;-58
2021/04/22 06:22:51;;;;;;;;;;;;;;;23.27;34.78;102438.72;2198106;39;113654;-56
2021/04/22 06:24:23;;;;;;;;;;;;;;;23.26;34.54;102440.69;2195481;39;113767;-59
2021/04/22 06:25:55;;;;;;;;;;;;;;;23.23;33.89;102437.63;2196949;39;113887;-60
2021/04/22 06:27:29;;;;;;;;;;;;;;;23.27;34.40;102438.72;2197965;39;113633;-56
2021/04/22 06:29:03;;;;;;;;;;;;;;;23.30;34.60;102450.28;2195608;39;115332;-59
2021/04/22 06:30:35;;;;;;;;;;;;;;;23.33;34.72;102446.88;2196679;39;114593;-57
2021/04/22 06:32:07;;;;;;;;;;;;;;;23.29;33.68;102448.59;2195288;39;114102;-57
2021/04/22 06:33:40;;;;;;;;;;;;;;;22.81;29.15;102447.41;2196688;39;114030;-59
2021/04/22 06:35:13;;;;;;;;;;;;;;;22.44;27.87;102439.31;2201243;39;113875;-56
2021/04/22 06:36:45;;;;;;;;;;;;;;;22.26;27.54;102442.72;2196953;39;114951;-59
2021/04/22 06:38:16;;;;;;;;;;;;;;;22.10;27.36;102444.72;2200191;39;115216;-55
2021/04/22 06:39:48;;;;;;;;;;;;;;;22.24;27.98;102438.53;2197234;39;115308;-57
2021/04/22 06:41:20;;;;;;;;;;;;;;;22.46;28.15;102445.50;2195942;39;114935;-56
2021/04/22 06:42:52;;;;;;;;;;;;;;;22.58;28.70;102450.81;2195936;39;117017;-59
2021/04/22 06:44:23;;;;;;;;;;;;;;;22.67;28.89;102453.94;2196409;39;114923;-57
2021/04/22 06:45:56;;;;;;;;;;;;;;;22.68;29.04;102450.81;2202752;39;115286;-58
2021/04/22 06:47:27;;;;;;;;;;;;;;;22.71;29.24;102452.25;2196809;39;114808;-56
2021/04/22 06:48:59;;;;;;;;;;;;;;;22.73;29.50;102456.47;2193229;39;115034;-59
2021/04/22 06:50:31;;;;;;;;;;;;;;;22.73;29.63;102452.78;2191357;39;114307;-58
2021/04/22 06:52:04;;;;;;;;;;;;;;;22.75;29.75;102453.38;2198844;39;115152;-57
2021/04/22 06:53:35;;;;;;;;;;;;;;;22.74;29.83;102458.16;2193820;39;115240;-55
2021/04/22 06:55:09;;;;;;;;;;;;;;;22.75;30.15;102467.47;2196827;39;115630;-57
2021/04/22 06:56:42;;;;;;;;;;;;;;;22.74;30.04;102460.13;2199232;39;115066;-58
2021/04/22 06:58:13;;;;;;;;;;;;;;;22.74;30.38;102469.41;2197311;39;115150;-58
2021/04/22 06:59:45;;;;;;;;;;;;;;;22.74;30.44;102463.78;2196993;39;116050;-59
2021/04/22 07:01:16;;;;;;;;;;;;;;;22.73;30.20;102470.53;2196982;39;115551;-56
2021/04/22 07:02:49;;;;;;;;;;;;;;;22.71;30.11;102471.97;2193649;39;115623;-59
2021/04/22 07:04:21;;;;;;;;;;;;;;;22.71;29.99;102466.34;2196020;39;116072;-57
2021/04/22 07:05:52;;;;;;;;;;;;;;;22.71;30.24;102470.00;2194250;39;116443;-58
2021/04/22 07:07:24;;;;;;;;;;;;;;;22.70;30.42;102468.31;2195864;39;115581;-60
2021/04/22 07:08:55;;;;;;;;;;;;;;;22.69;30.22;102462.91;2195536;39;116088;-58
2021/04/22 07:10:27;;;;;;;;;;;;;;;22.68;30.41;102467.72;2196710;39;115525;-55
2021/04/22 07:11:58;;;;;;;;;;;;;;;22.67;30.47;102459.56;2201390;39;115641;-57
2021/04/22 07:13:32;;;;;;;;;;;;;;;22.67;30.45;102468.00;2190901;39;115702;-57
2021/04/22 07:15:04;;;;;;;;;;;;;;;22.63;30.22;102465.75;2193377;39;116147;-56
2021/04/22 07:16:37;;;;;;;;;;;;;;;22.61;30.72;102470.00;2199111;39;115775;-58
2021/04/22 07:18:11;;;;;;;;;;;;;;;22.60;30.68;102469.16;2199798;39;114593;-61
2021/04/22 07:19:43;;;;;;;;;;;;;;;22.59;30.94;102470.28;2197357;39;114161;-60
2021/04/22 07:21:15;;;;;;;;;;;;;;;22.62;30.94;102478.13;2196274;39;114099;-56
2021/04/22 07:22:47;;;;;;;;;;;;;;;22.61;31.16;102472.81;2195321;39;113924;-58
2021/04/22 07:24:19;;;;;;;;;;;;;;;22.59;31.10;102475.06;2195981;39;114165;-59
2021/04/22 07:25:51;;;;;;;;;;;;;;;22.60;30.92;102480.41;2194944;39;114092;-56
2021/04/22 07:27:22;;;;;;;;;;;;;;;22.59;30.90;102484.34;2196493;39;114074;-57
2021/04/22 07:28:55;;;;;;;;;;;;;;;22.59;31.21;102483.50;2196910;39;113796;-56
2021/04/22 07:30:28;;;;;;;;;;;;;;;22.54;31.07;102483.50;2195670;39;113787;-58
2021/04/22 07:31:59;;;;;;;;;;;;;;;22.57;31.13;102483.81;2194752;39;113923;-57
2021/04/22 07:33:32;;;;;;;;;;;;;;;22.60;31.44;102490.84;2194175;39;114226;-57
2021/04/22 07:35:03;;;;;;;;;;;;;;;22.59;31.36;102487.16;2196508;39;113880;-59
2021/04/22 07:36:37;;;;;;;;;;;;;;;22.61;31.36;102487.75;2196285;39;114013;-58
2021/04/22 07:38:11;;;;;;;;;;;;;;;22.60;31.67;102500.13;2197719;39;113796;-58
2021/04/22 07:39:44;;;;;;;;;;;;;;;22.58;31.69;102484.63;2198135;39;115172;-55
2021/04/22 07:41:16;;;;;;;;;;;;;;;22.59;31.92;102489.16;2200817;39;115131;-57
2021/04/22 07:42:47;;;;;;;;;;;;;;;22.59;32.01;102491.97;2192980;39;114959;-55
2021/04/22 07:44:18;;;;;;;;;;;;;;;22.60;32.06;102491.69;2198982;39;114160;-56
2021/04/22 07:45:50;;;;;;;;;;;;;;;22.58;32.24;102495.91;2197569;39;115163;-58
2021/04/22 07:47:21;;;;;;;;;;;;;;;22.57;32.17;102488.59;2195038;39;114895;-55
2021/04/22 07:48:57;;;;;;;;;;;;;;;22.57;31.93;102495.09;2193110;39;114878;-56
2021/04/22 07:50:28;;;;;;;;;;;;;;;22.51;31.78;102501.00;2192561;39;113982;-60
2021/04/22 07:52:01;;;;;;;;;;;;;;;22.40;30.20;102496.50;2196139;39;114929;-58